Time;durP1;ratioP1;P1;durP2;ratioP2;P2;SDS_P1;SDS_P2;PMS_P1;PMS_P2;Temp;Humidity;BMP_temperature;BMP_pressure;BME280_temperature;BME280_humidity;BME280_pressure;Samples;Min_cycle;Max_cycle;Signal;HPM_P1;HPM_P2
2021/05/15 00:00:57;;;;;;;2.90;2.10;;;;;;;10.77;100.00;95779.13;4978109;28;20038;-60
2021/05/15 00:03:26;;;;;;;2.30;2.10;;;;;;;10.88;100.00;95791.19;4986671;28;20540;-58
2021/05/15 00:05:54;;;;;;;3.03;1.90;;;;;;;10.68;100.00;95790.66;4984340;28;20042;-58
2021/05/15 00:08:22;;;;;;;2.40;2.20;;;;;;;10.89;100.00;95787.53;4987844;28;20070;-58
2021/05/15 00:10:50;;;;;;;3.72;2.30;;;;;;;10.76;100.00;95792.47;4986762;28;20053;-55
2021/05/15 00:13:17;;;;;;;2.70;2.30;;;;;;;10.76;100.00;95795.09;4988413;28;20081;-59
2021/05/15 00:15:45;;;;;;;2.95;2.40;;;;;;;10.77;100.00;95787.06;4980410;28;20081;-55
2021/05/15 00:18:13;;;;;;;3.15;2.30;;;;;;;10.76;100.00;95793.28;4989366;28;20054;-56
2021/05/15 00:20:40;;;;;;;2.55;2.20;;;;;;;10.69;100.00;95800.19;4983294;28;20441;-56
2021/05/15 00:23:08;;;;;;;4.40;2.60;;;;;;;10.52;100.00;95795.88;4999008;28;20104;-63
2021/05/15 00:25:37;;;;;;;2.95;2.20;;;;;;;10.56;100.00;95791.91;4982678;28;20429;-60
2021/05/15 00:28:04;;;;;;;2.65;2.00;;;;;;;10.51;100.00;95796.88;4990192;28;20118;-59
2021/05/15 00:30:32;;;;;;;2.05;1.85;;;;;;;10.42;100.00;95790.72;4980472;28;20481;-56
2021/05/15 00:32:59;;;;;;;3.40;2.42;;;;;;;10.47;100.00;95788.47;4984965;28;20077;-55
2021/05/15 00:35:26;;;;;;;2.47;2.10;;;;;;;10.34;100.00;95783.63;4988858;28;20041;-58
2021/05/15 00:37:54;;;;;;;2.92;2.15;;;;;;;10.34;100.00;95788.09;4987641;28;20073;-56
2021/05/15 00:40:22;;;;;;;2.50;2.30;;;;;;;10.30;100.00;95795.47;4985015;28;20066;-56
2021/05/15 00:42:50;;;;;;;2.50;2.30;;;;;;;10.29;100.00;95795.63;4978437;28;20050;-58
2021/05/15 00:45:18;;;;;;;2.47;2.20;;;;;;;10.17;100.00;95793.25;4983706;28;20045;-57
2021/05/15 00:47:46;;;;;;;2.53;2.17;;;;;;;10.22;100.00;95790.97;4984346;28;20046;-56
2021/05/15 00:50:14;;;;;;;2.40;2.20;;;;;;;10.31;100.00;95783.94;4990033;28;20030;-58
2021/05/15 00:52:41;;;;;;;2.55;2.35;;;;;;;10.27;100.00;95792.34;4998306;28;20050;-54
2021/05/15 00:55:11;;;;;;;2.90;2.30;;;;;;;10.18;100.00;95792.25;5003231;28;20047;-60
2021/05/15 00:57:40;;;;;;;2.83;2.20;;;;;;;10.09;100.00;95787.13;4983929;28;20314;-56
2021/05/15 01:00:10;;;;;;;3.92;2.50;;;;;;;10.15;100.00;95794.38;4985572;28;20038;-58
2021/05/15 01:02:38;;;;;;;2.75;2.30;;;;;;;10.12;100.00;95785.00;4982528;28;20057;-58
2021/05/15 01:05:07;;;;;;;3.95;2.50;;;;;;;10.07;100.00;95795.19;4987164;28;20034;-58
2021/05/15 01:07:35;;;;;;;2.88;2.53;;;;;;;10.11;100.00;95785.16;4986686;28;20938;-52
2021/05/15 01:10:03;;;;;;;3.83;2.40;;;;;;;10.16;100.00;95786.34;4988276;28;20038;-55
2021/05/15 01:12:30;;;;;;;2.45;2.25;;;;;;;10.14;100.00;95782.19;4984185;28;20065;-54
2021/05/15 01:14:59;;;;;;;2.45;2.25;;;;;;;10.26;100.00;95782.78;4987064;28;20042;-53
2021/05/15 01:17:27;;;;;;;5.18;2.70;;;;;;;10.19;100.00;95780.75;4988536;28;20077;-59
2021/05/15 01:19:54;;;;;;;2.92;2.40;;;;;;;10.41;100.00;95782.00;4979936;28;20070;-60
2021/05/15 01:22:24;;;;;;;3.47;2.20;;;;;;;10.38;100.00;95789.41;4984982;28;20077;-60
2021/05/15 01:24:52;;;;;;;2.97;2.67;;;;;;;10.18;100.00;95784.34;4980845;28;20085;-57
2021/05/15 01:27:19;;;;;;;3.05;2.63;;;;;;;10.26;100.00;95786.25;4984590;28;20433;-55
2021/05/15 01:29:46;;;;;;;3.90;2.63;;;;;;;10.25;100.00;95783.72;4981889;28;20085;-58
2021/05/15 01:32:14;;;;;;;2.85;2.47;;;;;;;10.32;100.00;95790.84;4991307;28;20074;-54
2021/05/15 01:34:42;;;;;;;4.43;2.55;;;;;;;10.49;100.00;95788.28;4984613;28;20082;-53
2021/05/15 01:37:09;;;;;;;3.78;2.70;;;;;;;10.39;100.00;95780.50;4991461;28;20066;-59
2021/05/15 01:39:37;;;;;;;3.58;2.58;;;;;;;10.42;100.00;95777.56;4987118;28;20469;-57
2021/05/15 01:42:06;;;;;;;3.42;3.13;;;;;;;10.32;100.00;95782.13;4989805;28;20069;-58
2021/05/15 01:44:33;;;;;;;2.95;2.72;;;;;;;10.45;100.00;95783.31;4983265;28;20460;-58
2021/05/15 01:47:01;;;;;;;3.15;2.85;;;;;;;10.33;100.00;95783.81;4983492;28;20066;-58
2021/05/15 01:49:29;;;;;;;4.00;2.50;;;;;;;10.42;100.00;95780.19;4988337;28;20469;-58
2021/05/15 01:51:56;;;;;;;4.10;2.55;;;;;;;10.45;100.00;95782.50;4993939;28;20070;-56
2021/05/15 01:54:24;;;;;;;2.80;2.50;;;;;;;10.53;100.00;95772.00;4987408;28;20808;-57
2021/05/15 01:56:53;;;;;;;2.92;2.63;;;;;;;10.42;100.00;95778.38;4987654;28;20053;-54
2021/05/15 01:59:20;;;;;;;2.97;2.67;;;;;;;10.56;100.00;95765.56;4986961;28;20078;-60
2021/05/15 02:01:48;;;;;;;2.90;2.60;;;;;;;10.62;100.00;95775.47;4990829;28;20543;-53
2021/05/15 02:04:14;;;;;;;2.90;2.38;;;;;;;10.54;100.00;95773.66;4986259;28;20077;-57
2021/05/15 02:06:42;;;;;;;2.70;2.50;;;;;;;10.51;100.00;95781.88;4992885;28;20509;-59
2021/05/15 02:09:09;;;;;;;4.25;2.55;;;;;;;10.60;100.00;95772.19;4990550;28;20068;-56
2021/05/15 02:11:38;;;;;;;2.58;2.38;;;;;;;10.71;100.00;95773.69;4995778;28;20053;-57
2021/05/15 02:14:07;;;;;;;2.78;2.50;;;;;;;10.52;100.00;95772.97;4993453;28;20081;-59
2021/05/15 02:16:34;;;;;;;4.05;2.70;;;;;;;10.59;100.00;95768.69;4983813;28;20141;-59
2021/05/15 02:19:01;;;;;;;3.75;2.40;;;;;;;10.48;100.00;95778.72;4995697;28;20070;-52
2021/05/15 02:21:29;;;;;;;3.63;2.20;;;;;;;10.54;100.00;95778.09;4984957;28;20444;-57
2021/05/15 02:23:55;;;;;;;2.60;2.40;;;;;;;10.62;100.00;95784.19;4988800;28;20073;-55
2021/05/15 02:26:23;;;;;;;2.88;2.38;;;;;;;10.67;100.00;95774.00;4986957;28;20069;-56
2021/05/15 02:28:50;;;;;;;2.30;2.10;;;;;;;10.52;100.00;95778.25;4993401;28;20030;-55
2021/05/15 02:31:19;;;;;;;3.05;2.30;;;;;;;10.59;100.00;95771.34;4985957;28;20535;-58
2021/05/15 02:33:46;;;;;;;3.47;2.30;;;;;;;10.60;100.00;95772.19;4990275;28;20112;-57
2021/05/15 02:36:13;;;;;;;4.63;2.40;;;;;;;10.68;100.00;95782.75;4984958;28;20513;-56
2021/05/15 02:38:41;;;;;;;2.63;2.20;;;;;;;10.59;100.00;95784.50;4989461;28;20509;-62
2021/05/15 02:41:08;;;;;;;2.35;2.15;;;;;;;10.58;100.00;95784.69;4987957;28;20513;-57
2021/05/15 02:43:35;;;;;;;3.70;2.40;;;;;;;10.52;100.00;95785.31;4978892;28;20096;-57
2021/05/15 02:46:03;;;;;;;2.50;2.30;;;;;;;10.40;100.00;95784.81;4989263;28;20294;-59
2021/05/15 02:48:31;;;;;;;2.63;2.20;;;;;;;10.51;100.00;95787.16;4987194;28;20504;-58
2021/05/15 02:50:58;;;;;;;2.42;2.20;;;;;;;10.30;100.00;95784.13;4987292;28;20074;-59
2021/05/15 02:53:26;;;;;;;2.80;2.55;;;;;;;10.45;100.00;95788.59;4987768;28;20042;-58
2021/05/15 02:55:53;;;;;;;3.03;2.38;;;;;;;10.37;100.00;95793.03;4991369;28;20073;-58
2021/05/15 02:58:20;;;;;;;2.78;2.13;;;;;;;10.22;100.00;95793.63;4985721;28;20518;-57
2021/05/15 03:00:47;;;;;;;2.60;2.30;;;;;;;10.56;100.00;95791.91;4990200;28;20442;-57
2021/05/15 03:03:15;;;;;;;2.60;2.40;;;;;;;10.43;100.00;95789.78;4984771;28;20050;-56
2021/05/15 03:05:43;;;;;;;2.75;2.25;;;;;;;10.21;100.00;95789.31;4981575;28;20062;-57
2021/05/15 03:08:11;;;;;;;4.00;2.40;;;;;;;10.18;100.00;95796.69;4979764;28;20110;-57
2021/05/15 03:10:39;;;;;;;2.72;2.40;;;;;;;10.19;100.00;95796.56;4987102;28;20065;-57
2021/05/15 03:13:06;;;;;;;3.67;2.20;;;;;;;10.22;100.00;95796.25;4987785;28;20046;-56
2021/05/15 03:15:33;;;;;;;2.10;2.00;;;;;;;10.33;100.00;95794.34;4982993;28;20070;-60
2021/05/15 03:18:01;;;;;;;2.55;2.17;;;;;;;10.41;100.00;95794.38;4984385;28;20062;-57
2021/05/15 03:20:28;;;;;;;2.63;2.10;;;;;;;10.45;100.00;95798.31;4986203;28;20074;-57
2021/05/15 03:22:56;;;;;;;3.22;2.30;;;;;;;10.47;100.00;95796.38;4988456;28;20046;-56
2021/05/15 03:25:24;;;;;;;2.08;1.98;;;;;;;10.74;100.00;95786.56;4987023;28;20692;-55
2021/05/15 03:27:51;;;;;;;3.15;2.15;;;;;;;10.71;100.00;95792.16;4985020;28;20517;-55
2021/05/15 03:30:19;;;;;;;2.88;2.00;;;;;;;10.34;100.00;95791.53;4985489;28;20035;-57
2021/05/15 03:32:46;;;;;;;3.30;2.20;;;;;;;10.41;100.00;95794.38;4983300;28;20062;-60
2021/05/15 03:35:15;;;;;;;2.50;2.30;;;;;;;10.46;100.00;95784.19;4982646;28;20070;-60
2021/05/15 03:37:42;;;;;;;2.83;2.30;;;;;;;10.63;100.00;95780.59;4993569;28;20058;-56
2021/05/15 03:40:12;;;;;;;2.33;2.13;;;;;;;10.45;100.00;95790.41;4985510;28;20444;-58
2021/05/15 03:42:40;;;;;;;2.63;2.10;;;;;;;10.39;100.00;95796.31;4995726;28;20046;-58
2021/05/15 03:45:09;;;;;;;2.50;2.30;;;;;;;10.65;100.00;95794.44;4989978;28;20093;-61
2021/05/15 03:47:36;;;;;;;4.60;2.28;;;;;;;10.50;100.00;95793.41;4998511;28;20050;-56
2021/05/15 03:50:05;;;;;;;2.20;2.00;;;;;;;10.42;100.00;95796.00;4987557;28;20520;-56
2021/05/15 03:52:33;;;;;;;2.38;1.92;;;;;;;10.69;100.00;95795.75;4991875;28;20408;-60
2021/05/15 03:55:01;;;;;;;2.17;2.00;;;;;;;10.58;100.00;95785.50;4988899;28;20046;-57
2021/05/15 03:57:29;;;;;;;2.53;2.00;;;;;;;10.37;100.00;95793.84;4986321;28;20073;-60
2021/05/15 03:59:56;;;;;;;2.42;2.10;;;;;;;10.53;100.00;95795.72;4983782;28;20070;-61
2021/05/15 04:02:24;;;;;;;2.30;2.10;;;;;;;10.41;100.00;95797.00;4985166;28;20034;-56
2021/05/15 04:04:51;;;;;;;2.20;2.00;;;;;;;10.43;100.00;95800.31;4984957;28;20097;-56
2021/05/15 04:07:19;;;;;;;2.33;2.20;;;;;;;10.38;100.00;95806.03;4986349;28;20089;-59
2021/05/15 04:09:46;;;;;;;3.33;2.42;;;;;;;10.52;100.00;95801.16;4985921;28;20042;-56
2021/05/15 04:12:15;;;;;;;3.15;2.20;;;;;;;10.65;100.00;95798.88;4987213;28;20066;-57
2021/05/15 04:14:45;;;;;;;2.85;2.17;;;;;;;10.68;100.00;95794.09;4985908;28;20074;-61
2021/05/15 04:17:18;;;;;;;3.17;2.20;;;;;;;10.52;100.00;95803.78;4989464;28;20484;-60
2021/05/15 04:19:46;;;;;;;2.67;2.33;;;;;;;10.55;100.00;95804.28;4986255;28;20295;-53
2021/05/15 04:22:13;;;;;;;2.70;2.50;;;;;;;10.55;100.00;95814.81;4988206;28;20072;-59
2021/05/15 04:24:41;;;;;;;2.65;2.20;;;;;;;10.54;100.00;95805.28;4987045;28;20073;-59
2021/05/15 04:27:09;;;;;;;2.33;2.10;;;;;;;10.80;100.00;95806.97;4988040;28;20039;-56
2021/05/15 04:29:37;;;;;;;2.38;2.13;;;;;;;10.77;100.00;95809.94;4976232;28;20506;-57
2021/05/15 04:32:06;;;;;;;2.20;2.00;;;;;;;10.80;100.00;95802.53;4987501;28;20065;-61
2021/05/15 04:34:34;;;;;;;2.10;1.90;;;;;;;10.89;100.00;95803.38;4985671;28;20062;-57
2021/05/15 04:37:02;;;;;;;3.70;2.30;;;;;;;10.78;100.00;95812.44;4983934;28;20109;-56
2021/05/15 04:39:33;;;;;;;2.25;2.05;;;;;;;11.11;100.00;95807.19;4985806;28;20436;-58
2021/05/15 04:42:01;;;;;;;3.90;2.20;;;;;;;11.17;100.00;95804.72;4983215;28;20076;-58
2021/05/15 04:44:29;;;;;;;2.30;2.10;;;;;;;10.98;100.00;95805.03;4986426;28;20070;-60
2021/05/15 04:46:56;;;;;;;2.45;2.03;;;;;;;11.11;100.00;95809.81;4986559;28;20035;-52
2021/05/15 04:49:25;;;;;;;2.33;2.13;;;;;;;11.34;100.00;95815.28;4980609;28;20034;-56
2021/05/15 04:51:53;;;;;;;3.03;1.95;;;;;;;11.12;100.00;95819.41;4981744;28;20070;-58
2021/05/15 04:54:20;;;;;;;3.95;2.20;;;;;;;11.17;100.00;95817.09;4985127;28;20062;-61
2021/05/15 04:56:47;;;;;;;2.17;2.03;;;;;;;11.06;100.00;95812.97;4984052;28;20553;-62
2021/05/15 04:59:15;;;;;;;2.17;2.00;;;;;;;11.39;100.00;95823.53;4991600;28;20070;-60
2021/05/15 05:01:43;;;;;;;1.83;1.73;;;;;;;11.51;100.00;95813.47;4982340;28;20045;-59
2021/05/15 05:04:10;;;;;;;2.63;2.05;;;;;;;11.63;100.00;95812.97;4981831;28;20275;-57
2021/05/15 05:06:39;;;;;;;3.33;2.13;;;;;;;11.68;100.00;95817.75;4987455;28;20502;-54
2021/05/15 05:09:06;;;;;;;2.10;1.90;;;;;;;11.84;100.00;95806.38;4988276;28;20157;-56
2021/05/15 05:11:34;;;;;;;2.28;1.90;;;;;;;11.65;100.00;95805.69;4982913;28;20074;-61
2021/05/15 05:14:02;;;;;;;3.65;2.03;;;;;;;11.80;100.00;95812.91;4988009;28;20073;-56
2021/05/15 05:16:29;;;;;;;1.92;1.70;;;;;;;11.99;100.00;95807.31;4983007;28;20038;-59
2021/05/15 05:18:56;;;;;;;2.10;1.95;;;;;;;12.05;100.00;95817.19;4986807;28;20109;-57
2021/05/15 05:21:24;;;;;;;2.75;1.67;;;;;;;11.75;100.00;95812.63;4983091;28;20080;-61
2021/05/15 05:23:52;;;;;;;2.47;1.90;;;;;;;12.03;100.00;95813.88;4988276;28;20057;-62
2021/05/15 05:26:19;;;;;;;1.80;1.70;;;;;;;12.11;100.00;95805.97;4989469;28;20071;-60
2021/05/15 05:28:50;;;;;;;2.95;1.85;;;;;;;11.74;100.00;95819.72;4992166;28;20030;-58
2021/05/15 05:31:19;;;;;;;3.05;1.80;;;;;;;11.90;100.00;95813.59;4984069;28;20068;-56
2021/05/15 05:33:47;;;;;;;2.70;1.83;;;;;;;11.90;100.00;95815.41;4979854;28;20448;-60
2021/05/15 05:36:14;;;;;;;4.13;1.92;;;;;;;12.38;100.00;95806.50;4992401;28;20133;-58
2021/05/15 05:38:42;;;;;;;1.80;1.70;;;;;;;12.22;100.00;95798.66;4983591;28;20440;-59
2021/05/15 05:41:11;;;;;;;2.10;1.92;;;;;;;12.07;100.00;95809.09;4988691;28;20038;-55
2021/05/15 05:43:38;;;;;;;2.20;1.80;;;;;;;12.49;100.00;95805.28;4984855;28;20061;-56
2021/05/15 05:46:06;;;;;;;2.13;1.70;;;;;;;12.21;100.00;95800.44;4984520;28;20535;-53
2021/05/15 05:48:33;;;;;;;2.15;1.83;;;;;;;12.64;100.00;95802.75;4984420;28;20064;-55
2021/05/15 05:51:01;;;;;;;2.45;1.90;;;;;;;12.75;100.00;95795.25;4986967;28;20123;-59
2021/05/15 05:53:28;;;;;;;2.47;1.70;;;;;;;12.83;100.00;95797.84;4978857;28;20078;-59
2021/05/15 05:55:56;;;;;;;2.00;1.77;;;;;;;12.73;100.00;95796.41;4997388;28;20069;-53
2021/05/15 05:58:25;;;;;;;1.70;1.60;;;;;;;12.96;100.00;95793.78;4984044;28;20062;-57
2021/05/15 06:00:53;;;;;;;1.90;1.80;;;;;;;13.05;100.00;95792.75;4986122;28;20060;-59
2021/05/15 06:03:21;;;;;;;2.00;1.73;;;;;;;13.14;100.00;95791.66;4983922;28;20452;-59
2021/05/15 06:05:48;;;;;;;2.67;1.75;;;;;;;13.29;100.00;95781.19;4981775;28;20485;-56
2021/05/15 06:08:16;;;;;;;1.77;1.60;;;;;;;13.20;100.00;95788.31;4984382;28;20077;-60
2021/05/15 06:10:43;;;;;;;2.97;1.60;;;;;;;13.10;100.00;95792.22;4978606;28;20390;-60
2021/05/15 06:13:30;;;;;;;1.85;1.70;;;;;;;13.14;100.00;95790.84;4984128;28;20043;-56
2021/05/15 06:15:58;;;;;;;2.40;1.80;;;;;;;13.25;100.00;95786.00;4982526;28;20042;-57
2021/05/15 06:18:26;;;;;;;2.45;1.60;;;;;;;13.46;100.00;95782.69;4987237;28;20065;-56
2021/05/15 06:20:54;;;;;;;1.60;1.50;;;;;;;13.61;100.00;95776.59;4977886;28;20524;-56
2021/05/15 06:23:21;;;;;;;3.28;1.70;;;;;;;13.50;100.00;95786.63;4990792;28;20568;-57
2021/05/15 06:25:49;;;;;;;1.60;1.50;;;;;;;13.64;100.00;95786.84;4984308;28;20073;-53
2021/05/15 06:28:17;;;;;;;1.95;1.50;;;;;;;13.61;100.00;95774.75;4985464;28;20098;-55
2021/05/15 06:30:45;;;;;;;1.95;1.40;;;;;;;13.48;100.00;95775.38;4983633;28;20073;-53
2021/05/15 06:33:13;;;;;;;2.60;1.60;;;;;;;13.92;100.00;95774.63;4986869;28;20058;-55
2021/05/15 06:35:40;;;;;;;2.20;1.40;;;;;;;13.89;100.00;95784.75;4986026;28;20463;-58
2021/05/15 06:38:08;;;;;;;1.45;1.35;;;;;;;13.93;100.00;95781.56;4992733;28;20101;-56
2021/05/15 06:40:35;;;;;;;2.20;1.50;;;;;;;14.19;100.00;95775.81;4985588;28;20070;-56
2021/05/15 06:43:03;;;;;;;1.73;1.52;;;;;;;14.45;100.00;95779.78;4998145;28;20182;-55
2021/05/15 06:45:31;;;;;;;2.53;1.35;;;;;;;14.11;100.00;95778.56;4981012;28;20185;-56
2021/05/15 06:47:59;;;;;;;1.45;1.27;;;;;;;14.77;100.00;95773.28;4988744;28;20038;-53
2021/05/15 06:50:27;;;;;;;1.50;1.40;;;;;;;14.23;100.00;95787.69;4985138;28;20081;-57
2021/05/15 06:52:54;;;;;;;1.50;1.30;;;;;;;14.64;100.00;95778.44;4994794;28;20042;-58
2021/05/15 06:55:23;;;;;;;2.45;1.30;;;;;;;14.65;100.00;95780.88;4982619;28;20039;-55
2021/05/15 06:57:50;;;;;;;1.92;1.40;;;;;;;15.00;100.00;95772.28;4986767;28;20066;-57
2021/05/15 07:00:19;;;;;;;2.45;1.42;;;;;;;15.10;100.00;95778.09;4979596;28;20073;-55
2021/05/15 07:02:49;;;;;;;1.52;1.40;;;;;;;14.43;100.00;95777.34;4985783;28;20508;-57
2021/05/15 07:05:17;;;;;;;1.52;1.42;;;;;;;14.61;100.00;95773.50;4988572;28;20062;-58
2021/05/15 07:07:44;;;;;;;2.88;1.30;;;;;;;15.07;100.00;95771.34;4988148;28;22169;-60
2021/05/15 07:10:13;;;;;;;2.10;1.30;;;;;;;15.10;100.00;95768.28;4989154;28;20588;-58
2021/05/15 07:12:40;;;;;;;1.55;1.27;;;;;;;15.48;100.00;95772.50;4989700;28;20085;-59
2021/05/15 07:15:08;;;;;;;1.70;1.30;;;;;;;15.35;100.00;95765.25;4989235;28;20082;-53
2021/05/15 07:17:37;;;;;;;1.63;1.05;;;;;;;14.78;100.00;95766.94;4982049;28;20072;-58
2021/05/15 07:20:04;;;;;;;1.55;1.30;;;;;;;14.62;100.00;95764.50;4994311;28;20066;-55
2021/05/15 07:22:32;;;;;;;1.35;1.10;;;;;;;14.93;100.00;95757.13;4985538;28;20077;-57
2021/05/15 07:25:00;;;;;;;1.70;1.30;;;;;;;14.44;100.00;95767.53;4989829;28;20070;-58
2021/05/15 07:27:29;;;;;;;1.33;1.23;;;;;;;14.79;100.00;95757.16;4978109;28;20045;-55
2021/05/15 07:29:57;;;;;;;1.33;1.23;;;;;;;15.02;100.00;95749.03;4984013;28;20069;-59
2021/05/15 07:32:25;;;;;;;2.40;1.10;;;;;;;14.68;100.00;95758.47;4981007;28;20463;-57
2021/05/15 07:34:52;;;;;;;1.55;1.33;;;;;;;14.64;100.00;95750.06;4990539;28;20105;-59
2021/05/15 07:37:20;;;;;;;1.88;1.23;;;;;;;16.15;94.44;95745.38;4985557;28;20065;-56
2021/05/15 07:39:48;;;;;;;1.17;1.02;;;;;;;16.35;100.00;95743.66;4988975;28;20172;-57
2021/05/15 07:42:15;;;;;;;1.30;1.20;;;;;;;15.17;100.00;95750.59;4993373;28;20523;-54
2021/05/15 07:44:42;;;;;;;1.23;1.13;;;;;;;15.66;95.28;95747.16;4989226;28;20069;-59
2021/05/15 07:47:09;;;;;;;1.35;1.10;;;;;;;15.42;100.00;95743.03;4992876;28;20460;-60
2021/05/15 07:49:37;;;;;;;1.30;1.20;;;;;;;15.26;100.00;95742.50;4983974;28;20070;-61
2021/05/15 07:52:05;;;;;;;1.45;1.33;;;;;;;15.60;100.00;95741.75;4988560;28;20042;-57
2021/05/15 07:54:32;;;;;;;2.70;1.42;;;;;;;15.44;97.87;95733.03;4987361;28;20073;-56
2021/05/15 07:57:00;;;;;;;1.27;1.17;;;;;;;14.84;100.00;95736.19;4987121;28;20557;-55
2021/05/15 07:59:28;;;;;;;1.25;1.13;;;;;;;15.71;100.00;95733.25;4980242;28;20062;-58
2021/05/15 08:01:55;;;;;;;1.83;1.33;;;;;;;15.26;94.63;95729.22;4984781;28;20042;-60
2021/05/15 08:04:22;;;;;;;1.83;1.40;;;;;;;15.98;95.68;95722.78;4968344;28;20066;-58
2021/05/15 08:06:50;;;;;;;1.60;1.33;;;;;;;15.86;100.00;95725.16;4986321;28;20708;-59
2021/05/15 08:09:18;;;;;;;1.52;1.20;;;;;;;16.33;88.52;95724.38;4985712;28;20061;-55
2021/05/15 08:11:45;;;;;;;1.80;1.15;;;;;;;16.58;83.90;95718.53;4986724;28;20052;-56
2021/05/15 08:14:15;;;;;;;2.20;1.23;;;;;;;16.17;94.20;95718.56;4978420;28;20042;-59
2021/05/15 08:16:42;;;;;;;1.70;1.20;;;;;;;16.62;79.91;95706.50;4983221;28;20085;-55
2021/05/15 08:19:10;;;;;;;1.20;1.10;;;;;;;16.04;93.37;95716.69;4962951;28;20062;-62
2021/05/15 08:21:37;;;;;;;1.20;1.10;;;;;;;15.51;87.64;95717.13;4982869;28;20116;-51
2021/05/15 08:24:05;;;;;;;1.52;1.20;;;;;;;15.93;93.97;95718.03;4977335;28;20061;-57
2021/05/15 08:26:32;;;;;;;2.08;1.10;;;;;;;16.00;78.55;95713.63;4978010;28;20073;-59
2021/05/15 08:29:00;;;;;;;1.50;1.30;;;;;;;16.52;100.00;95708.72;4980712;28;20066;-60
2021/05/15 08:31:28;;;;;;;1.35;1.23;;;;;;;15.65;100.00;95708.25;4974701;28;20062;-54
2021/05/15 08:33:56;;;;;;;1.33;1.20;;;;;;;15.68;91.88;95715.03;4979014;28;20641;-58
2021/05/15 08:36:23;;;;;;;2.15;1.30;;;;;;;15.89;88.92;95706.16;4975836;28;20068;-55
2021/05/15 08:38:52;;;;;;;1.73;1.52;;;;;;;17.08;72.91;95695.94;4977577;28;20058;-54
2021/05/15 08:41:19;;;;;;;1.58;1.08;;;;;;;16.83;80.40;95697.56;4975907;28;20070;-58
2021/05/15 08:43:48;;;;;;;1.27;1.17;;;;;;;16.54;72.51;95704.00;4980432;28;20070;-58
2021/05/15 08:46:16;;;;;;;2.42;1.30;;;;;;;17.42;68.85;95687.94;4975792;28;20073;-60
2021/05/15 08:48:44;;;;;;;1.27;1.00;;;;;;;18.07;66.64;95686.22;4980205;28;20081;-60
2021/05/15 08:51:12;;;;;;;1.63;1.10;;;;;;;18.13;63.11;95692.53;4966858;28;20081;-57
2021/05/15 08:54:05;;;;;;;2.47;1.30;;;;;;;18.22;61.85;95692.09;4977046;28;20094;-58
2021/05/15 08:56:32;;;;;;;2.45;1.10;;;;;;;17.64;72.41;95693.88;4972232;28;20042;-57
2021/05/15 08:58:59;;;;;;;1.73;1.20;;;;;;;18.34;76.75;95688.75;4983749;28;20418;-61
2021/05/15 09:01:27;;;;;;;2.00;1.10;;;;;;;17.30;75.50;95685.88;4975080;28;20097;-55
2021/05/15 09:04:15;;;;;;;3.53;1.10;;;;;;;16.96;74.91;95686.09;4974207;28;20047;-59
2021/05/15 09:06:45;;;;;;;1.98;1.17;;;;;;;17.83;63.58;95679.72;4974730;28;20472;-58
2021/05/15 09:09:14;;;;;;;8.98;2.97;;;;;;;17.33;78.74;95685.47;4975151;28;20077;-58
2021/05/15 09:11:43;;;;;;;2.45;1.40;;;;;;;17.62;76.64;95683.41;4972191;28;20143;-58
2021/05/15 09:14:15;;;;;;;32.60;8.52;;;;;;;17.71;86.21;95676.81;4979826;28;20094;-54
2021/05/15 09:16:49;;;;;;;7.88;2.58;;;;;;;17.16;73.95;95680.78;4974230;28;20125;-53
2021/05/15 09:19:20;;;;;;;11.85;3.70;;;;;;;17.03;81.15;95671.78;4976981;28;20105;-59
2021/05/15 09:21:58;;;;;;;1.75;1.23;;;;;;;17.76;70.29;95668.25;4973520;28;20500;-57
2021/05/15 09:24:28;;;;;;;1.48;1.00;;;;;;;17.47;65.60;95672.16;4982251;28;20038;-60
2021/05/15 09:26:58;;;;;;;1.13;0.95;;;;;;;17.20;72.92;95674.81;4979718;28;20066;-57
2021/05/15 09:29:30;;;;;;;1.45;1.17;;;;;;;16.71;77.36;95675.16;4978597;28;20086;-57
2021/05/15 09:32:03;;;;;;;1.40;1.20;;;;;;;16.67;66.95;95668.59;4982995;28;20069;-59
2021/05/15 09:34:43;;;;;;;1.98;1.17;;;;;;;17.54;59.22;95665.78;4980280;28;20073;-58
2021/05/15 09:37:27;;;;;;;1.20;1.10;;;;;;;17.04;57.07;95659.25;4977595;28;20051;-59
2021/05/15 09:39:56;;;;;;;1.73;1.13;;;;;;;17.26;59.74;95663.34;4983543;28;20039;-61
2021/05/15 09:42:25;;;;;;;1.45;1.10;;;;;;;17.93;53.56;95657.94;4978099;28;20173;-58
2021/05/15 09:44:54;;;;;;;1.13;1.00;;;;;;;17.95;54.99;95654.00;4981167;28;20058;-60
2021/05/15 09:47:23;;;;;;;1.20;1.10;;;;;;;18.53;57.25;95655.00;4979111;28;20038;-58
2021/05/15 09:49:54;;;;;;;1.53;0.80;;;;;;;19.88;50.58;95645.50;4982490;28;20093;-58
2021/05/15 09:52:31;;;;;;;0.88;0.80;;;;;;;19.27;50.27;95645.44;4979124;28;20416;-56
2021/05/15 09:55:09;;;;;;;0.93;0.73;;;;;;;20.04;44.86;95641.41;4986224;28;20521;-58
2021/05/15 09:57:38;;;;;;;2.05;0.82;;;;;;;20.24;43.30;95629.66;4967740;28;20302;-61
2021/05/15 10:00:11;;;;;;;0.90;0.90;;;;;;;20.59;44.63;95638.69;4983753;28;20075;-59
2021/05/15 10:02:40;;;;;;;1.33;0.90;;;;;;;20.70;41.08;95634.41;4980661;28;20081;-60
2021/05/15 10:05:11;;;;;;;1.08;0.90;;;;;;;18.90;43.07;95632.81;4985994;28;20426;-55
2021/05/15 10:07:39;;;;;;;0.70;0.70;;;;;;;19.76;45.56;95627.75;4984217;28;20541;-55
2021/05/15 10:10:09;;;;;;;1.00;0.80;;;;;;;19.85;43.23;95629.06;4979550;28;20073;-54
2021/05/15 10:12:37;;;;;;;1.23;0.88;;;;;;;19.65;44.17;95629.31;4982456;28;20070;-61
2021/05/15 10:15:08;;;;;;;1.45;0.90;;;;;;;19.23;50.25;95631.72;4978813;28;20046;-60
2021/05/15 10:17:37;;;;;;;0.90;0.90;;;;;;;19.77;48.32;95619.50;4982553;28;20151;-58
2021/05/15 10:20:07;;;;;;;0.80;0.80;;;;;;;19.66;43.79;95614.88;4984465;28;20050;-56
2021/05/15 10:22:41;;;;;;;1.30;0.75;;;;;;;20.47;40.82;95611.00;4983742;28;20090;-60
2021/05/15 10:25:11;;;;;;;0.70;0.70;;;;;;;19.48;46.40;95617.50;4980783;28;20070;-58
2021/05/15 10:27:40;;;;;;;0.90;0.90;;;;;;;19.50;44.38;95608.22;4984105;28;20046;-57
2021/05/15 10:30:17;;;;;;;1.65;0.90;;;;;;;19.76;44.41;95607.16;4978458;28;20066;-57
2021/05/15 10:32:54;;;;;;;1.05;0.82;;;;;;;20.04;40.81;95598.59;4983597;28;20053;-58
2021/05/15 10:35:28;;;;;;;0.88;0.82;;;;;;;20.15;41.95;95595.16;4975514;28;20516;-55
2021/05/15 10:38:09;;;;;;;1.50;0.90;;;;;;;19.35;46.14;95592.53;4978308;28;20069;-58
2021/05/15 10:40:47;;;;;;;1.00;0.82;;;;;;;19.73;52.40;95582.72;4977756;28;20062;-56
2021/05/15 10:43:30;;;;;;;1.27;1.08;;;;;;;19.66;54.07;95583.59;4973710;28;20105;-59
2021/05/15 10:45:58;;;;;;;1.70;0.90;;;;;;;19.19;46.19;95574.38;4980782;28;20070;-58
2021/05/15 10:48:28;;;;;;;1.05;0.90;;;;;;;19.84;46.89;95571.25;4984923;28;20047;-58
2021/05/15 10:50:59;;;;;;;1.77;1.00;;;;;;;19.61;48.13;95574.56;4982434;28;20081;-59
2021/05/15 10:53:29;;;;;;;1.45;0.88;;;;;;;19.14;50.31;95563.56;4980744;28;20046;-60
2021/05/15 10:56:11;;;;;;;1.27;0.80;;;;;;;19.37;44.72;95562.91;4976341;28;20059;-57
2021/05/15 10:58:51;;;;;;;1.58;1.00;;;;;;;19.22;41.60;95560.59;4983300;28;20465;-58
2021/05/15 11:01:21;;;;;;;2.58;0.88;;;;;;;20.24;43.37;95552.03;4975444;28;20622;-58
2021/05/15 11:03:50;;;;;;;0.97;0.93;;;;;;;20.17;42.17;95544.06;4973946;28;20552;-53
2021/05/15 11:06:20;;;;;;;1.10;1.00;;;;;;;19.99;40.30;95538.75;4975394;28;20086;-58
2021/05/15 11:09:00;;;;;;;0.73;0.73;;;;;;;19.66;41.51;95540.00;4973424;28;20062;-59
2021/05/15 11:11:36;;;;;;;5.10;1.50;;;;;;;21.26;39.04;95538.44;4976080;28;20497;-59
2021/05/15 11:14:24;;;;;;;1.02;0.70;;;;;;;20.92;46.62;95532.03;4984058;28;20112;-59
2021/05/15 11:17:11;;;;;;;1.67;0.90;;;;;;;20.92;40.56;95532.88;4970455;28;20087;-62
2021/05/15 11:19:47;;;;;;;0.73;0.70;;;;;;;20.85;40.68;95522.25;4980192;28;20062;-55
2021/05/15 11:22:16;;;;;;;1.30;0.70;;;;;;;21.30;38.55;95523.50;4980325;28;20077;-56
2021/05/15 11:24:56;;;;;;;1.05;0.80;;;;;;;20.12;38.79;95526.00;4981862;28;21070;-58
2021/05/15 11:27:25;;;;;;;0.82;0.80;;;;;;;19.38;40.90;95529.78;4977057;28;20039;-61
2021/05/15 11:30:12;;;;;;;1.38;1.20;;;;;;;19.28;40.65;95519.59;4975042;28;20081;-58
2021/05/15 11:32:41;;;;;;;2.30;1.60;;;;;;;19.56;40.93;95516.41;4979552;28;20077;-56
2021/05/15 11:35:10;;;;;;;4.03;2.83;;;;;;;20.05;41.88;95508.41;4983796;28;20057;-62